createdAt,value
2023-04-09T00:00:30.302Z,100970.41
2023-04-09T00:02:57.780Z,100965.19
2023-04-09T00:05:26.675Z,100968.34
2023-04-09T00:07:54.347Z,100971.44
2023-04-09T00:10:22.046Z,100974.00
2023-04-09T00:12:49.579Z,100976.78
2023-04-09T00:15:24.352Z,100977.19
2023-04-09T00:17:57.894Z,100978.25
2023-04-09T00:20:26.736Z,100975.53
2023-04-09T00:22:54.273Z,100974.97
2023-04-09T00:25:21.736Z,100979.31
2023-04-09T00:27:49.078Z,100981.38
2023-04-09T00:30:16.693Z,100984.47
2023-04-09T00:32:44.135Z,100983.19
2023-04-09T00:35:11.551Z,100983.56
2023-04-09T00:37:40.293Z,100972.84
2023-04-09T00:40:08.637Z,100991.88
2023-04-09T00:42:37.314Z,100983.94
2023-04-09T00:45:05.896Z,100983.19
2023-04-09T00:47:34.622Z,101006.16
2023-04-09T00:50:02.719Z,101001.16
2023-04-09T00:52:30.978Z,100997.75
2023-04-09T00:55:01.572Z,101007.16
2023-04-09T00:57:29.410Z,101005.78
2023-04-09T00:59:56.940Z,101002.97
2023-04-09T01:02:24.518Z,101006.81
2023-04-09T01:04:52.907Z,101011.97
2023-04-09T01:07:32.690Z,101012.53
2023-04-09T01:10:10.163Z,101009.63
2023-04-09T01:12:47.281Z,101011.84
2023-04-09T01:15:19.153Z,101012.09
2023-04-09T01:17:54.020Z,101024.66
2023-04-09T01:20:29.819Z,101028.09
2023-04-09T01:23:06.037Z,101033.88
2023-04-09T01:25:46.095Z,101041.44
2023-04-09T01:28:17.980Z,101031.63
2023-04-09T01:30:58.358Z,101050.81
2023-04-09T01:33:27.078Z,101044.50
2023-04-09T01:35:55.773Z,101046.78
2023-04-09T01:38:25.097Z,101062.81
2023-04-09T01:40:53.870Z,101070.94
2023-04-09T01:43:23.081Z,101079.53
2023-04-09T01:45:52.376Z,101069.19
2023-04-09T01:48:21.276Z,101076.56
2023-04-09T01:50:53.429Z,101080.38
2023-04-09T01:53:22.408Z,101077.53
2023-04-09T01:55:50.379Z,101083.47
2023-04-09T01:58:17.806Z,101086.13
2023-04-09T02:00:49.279Z,101086.81
2023-04-09T02:03:19.693Z,101100.19
2023-04-09T02:05:53.305Z,101086.09
2023-04-09T02:08:23.902Z,101088.22
2023-04-09T02:10:55.577Z,101089.38
2023-04-09T02:13:25.744Z,101087.25
2023-04-09T02:15:56.774Z,101077.53
2023-04-09T02:18:28.511Z,101080.50
2023-04-09T02:20:56.711Z,101077.19
2023-04-09T02:23:24.447Z,101070.31
2023-04-09T02:25:54.424Z,101074.22
2023-04-09T02:28:21.904Z,101071.44
2023-04-09T02:30:49.266Z,101067.31
2023-04-09T02:33:18.020Z,101063.53
2023-04-09T02:35:45.446Z,101046.25
2023-04-09T02:38:13.778Z,101037.66
2023-04-09T02:40:41.666Z,101043.59
2023-04-09T02:43:09.191Z,101033.19
2023-04-09T02:45:37.205Z,101029.38
2023-04-09T02:48:04.986Z,101022.00
2023-04-09T02:50:33.731Z,101003.22
2023-04-09T02:53:01.155Z,100987.56
2023-04-09T02:55:28.656Z,100977.34
2023-04-09T02:57:56.093Z,100962.41
2023-04-09T03:00:23.696Z,100954.34
2023-04-09T03:02:51.171Z,100934.94
2023-04-09T03:05:18.664Z,100933.25
2023-04-09T03:07:47.711Z,100925.44
2023-04-09T03:10:16.543Z,100921.47
2023-04-09T03:12:44.502Z,100909.59
2023-04-09T03:15:12.181Z,100902.34
2023-04-09T03:17:41.119Z,100901.94
2023-04-09T03:20:09.115Z,100891.84
2023-04-09T03:22:37.226Z,100894.63
2023-04-09T03:25:06.966Z,100897.69
2023-04-09T03:27:34.400Z,100888.59
2023-04-09T03:30:02.342Z,100891.72
2023-04-09T03:32:29.732Z,100888.50
2023-04-09T03:34:57.111Z,100883.66
2023-04-09T03:37:24.485Z,100871.16
2023-04-09T03:39:51.851Z,100873.84
2023-04-09T03:42:20.556Z,100867.19
2023-04-09T03:44:47.928Z,100868.28
2023-04-09T03:47:15.349Z,100862.78
2023-04-09T03:49:42.761Z,100863.19
2023-04-09T03:52:10.336Z,100868.91
2023-04-09T03:54:37.803Z,100862.34
2023-04-09T03:57:05.220Z,100857.47
2023-04-09T03:59:33.880Z,100849.19
2023-04-09T04:02:01.678Z,100854.66
2023-04-09T04:04:29.379Z,100851.22
2023-04-09T04:06:56.873Z,100847.97
2023-04-09T04:09:24.326Z,100852.44
2023-04-09T04:11:51.694Z,100859.06
2023-04-09T04:14:19.047Z,100857.41
2023-04-09T04:16:47.763Z,100859.88
2023-04-09T04:19:15.454Z,100856.47
2023-04-09T04:21:42.891Z,100855.75
2023-04-09T04:24:10.356Z,100857.69
2023-04-09T04:26:40.333Z,100856.47
2023-04-09T04:29:10.543Z,100865.38
2023-04-09T04:31:37.935Z,100866.34
2023-04-09T04:34:06.645Z,100868.47
2023-04-09T04:36:34.011Z,100860.31
2023-04-09T04:39:01.396Z,100872.59
2023-04-09T04:41:29.331Z,100875.28
2023-04-09T04:43:57.164Z,100865.19
2023-04-09T04:46:24.565Z,100856.78
2023-04-09T04:48:52.246Z,100870.13
2023-04-09T04:51:21.149Z,100866.31
2023-04-09T04:53:48.531Z,100863.09
2023-04-09T04:56:16.301Z,100869.09
2023-04-09T04:58:43.826Z,100866.06
2023-04-09T05:01:11.231Z,100869.06
2023-04-09T05:03:38.658Z,100869.97
2023-04-09T05:06:06.145Z,100873.19
2023-04-09T05:08:34.858Z,100876.19
2023-04-09T05:11:02.216Z,100872.47
2023-04-09T05:13:29.582Z,100876.59
2023-04-09T05:15:56.962Z,100870.78
2023-04-09T05:18:24.341Z,100880.78
2023-04-09T05:20:51.722Z,100877.69
2023-04-09T05:23:19.103Z,100885.66
2023-04-09T05:25:49.295Z,100890.44
2023-04-09T05:28:17.412Z,100893.72
2023-04-09T05:30:47.384Z,100891.91
2023-04-09T05:33:14.786Z,100892.97
2023-04-09T05:35:42.196Z,100887.63
2023-04-09T05:38:09.577Z,100892.59
2023-04-09T05:40:39.099Z,100900.41
2023-04-09T05:43:07.848Z,100901.09
2023-04-09T05:45:35.931Z,100903.53
2023-04-09T05:48:03.318Z,100904.44
2023-04-09T05:50:31.856Z,100902.88
2023-04-09T05:53:01.934Z,100895.78
2023-04-09T05:55:29.303Z,100887.59
2023-04-09T05:57:57.143Z,100888.13
2023-04-09T06:00:25.879Z,100884.41
2023-04-09T06:02:53.428Z,100882.50
2023-04-09T06:05:21.424Z,100878.75
2023-04-09T06:07:49.063Z,100873.84
2023-04-09T06:10:16.541Z,100875.09
2023-04-09T06:12:43.920Z,100875.66
2023-04-09T06:15:12.261Z,100885.56
2023-04-09T06:17:41.134Z,100883.56
2023-04-09T06:20:09.474Z,100876.25
2023-04-09T06:22:36.917Z,100882.31
2023-04-09T06:25:04.957Z,100862.06
2023-04-09T06:27:35.255Z,100875.28
2023-04-09T06:30:02.721Z,100885.22
2023-04-09T06:32:32.041Z,100884.47
2023-04-09T06:35:02.386Z,100903.72
2023-04-09T06:37:29.782Z,100905.50
2023-04-09T06:40:00.951Z,100904.69
2023-04-09T06:42:29.142Z,100907.84
2023-04-09T06:44:56.576Z,100910.97
2023-04-09T06:47:24.011Z,100914.50
2023-04-09T06:49:51.369Z,100920.97
2023-04-09T06:52:22.124Z,100934.34
2023-04-09T06:54:49.486Z,100930.34
2023-04-09T06:57:18.985Z,100946.72
2023-04-09T06:59:46.353Z,100948.16
2023-04-09T07:02:13.768Z,100960.81
2023-04-09T07:04:41.372Z,100967.44
2023-04-09T07:07:08.763Z,100977.22
2023-04-09T07:09:37.434Z,100986.34
2023-04-09T07:12:04.864Z,100983.47
2023-04-09T07:14:32.232Z,100988.91
2023-04-09T07:16:59.573Z,101004.78
2023-04-09T07:19:27.013Z,101011.47
2023-04-09T07:21:54.408Z,101024.66
2023-04-09T07:24:21.816Z,101029.69
2023-04-09T07:26:52.079Z,101045.34
2023-04-09T07:29:20.642Z,101052.94
2023-04-09T07:31:48.068Z,101068.84
2023-04-09T07:34:15.635Z,101069.69
2023-04-09T07:36:43.545Z,101083.63
2023-04-09T07:39:10.923Z,101090.75
2023-04-09T07:41:38.403Z,101099.69
2023-04-09T07:44:07.447Z,101111.66
2023-04-09T07:46:34.899Z,101106.44
2023-04-09T07:49:02.274Z,101117.81
2023-04-09T07:51:29.648Z,101132.53
2023-04-09T07:53:57.034Z,101147.84
2023-04-09T07:56:24.388Z,101154.03
2023-04-09T07:58:51.952Z,101164.41
2023-04-09T08:01:24.428Z,101176.53
2023-04-09T08:03:52.148Z,101178.75
2023-04-09T08:06:19.707Z,101205.47
2023-04-09T08:08:51.174Z,101233.81
2023-04-09T08:11:24.972Z,101259.13
2023-04-09T08:13:55.130Z,101258.22
2023-04-09T08:16:24.421Z,101247.16
2023-04-09T08:18:52.054Z,101229.50
2023-04-09T08:21:19.628Z,101205.47
2023-04-09T08:23:47.041Z,101190.44
2023-04-09T08:26:14.467Z,101197.88
2023-04-09T08:28:42.130Z,101188.06
2023-04-09T08:31:12.093Z,101188.22
2023-04-09T08:33:41.100Z,101197.09
2023-04-09T08:36:11.292Z,101199.03
2023-04-09T08:38:38.779Z,101197.81
2023-04-09T08:41:06.512Z,101199.69
2023-04-09T08:43:47.185Z,101200.91
2023-04-09T08:46:22.804Z,101216.22
2023-04-09T08:48:53.317Z,101225.69
2023-04-09T08:51:23.270Z,101220.53
2023-04-09T08:53:56.936Z,101219.53
2023-04-09T08:56:24.742Z,101226.47
2023-04-09T08:58:52.453Z,101228.53
2023-04-09T09:01:21.724Z,101211.50
2023-04-09T09:03:58.686Z,101225.63
2023-04-09T09:06:28.697Z,101227.78
2023-04-09T09:09:05.365Z,101241.25
2023-04-09T09:11:33.504Z,101253.53
2023-04-09T09:14:02.612Z,101262.47
2023-04-09T09:16:31.229Z,101283.56
2023-04-09T09:19:00.826Z,101281.56
2023-04-09T09:21:28.756Z,101297.34
2023-04-09T09:23:56.517Z,101314.25
2023-04-09T09:26:25.574Z,101326.81
2023-04-09T09:28:53.242Z,101336.50
2023-04-09T09:31:22.425Z,101332.91
2023-04-09T09:33:51.776Z,101348.06
2023-04-09T09:36:33.245Z,101362.53
2023-04-09T09:39:03.791Z,101360.97
2023-04-09T09:41:31.754Z,101372.25
2023-04-09T09:43:59.172Z,101376.34
2023-04-09T09:46:27.422Z,101376.66
2023-04-09T09:48:55.410Z,101377.84
2023-04-09T09:51:27.642Z,101370.13
2023-04-09T09:53:58.082Z,101366.09
2023-04-09T09:56:32.483Z,101366.97
2023-04-09T09:59:08.335Z,101368.72
2023-04-09T10:01:36.556Z,101365.94
2023-04-09T10:04:07.112Z,101362.81
2023-04-09T10:06:35.561Z,101364.81
2023-04-09T10:09:06.636Z,101362.72
2023-04-09T10:11:36.257Z,101352.66
2023-04-09T10:14:05.132Z,101344.78
2023-04-09T10:16:34.709Z,101341.28
2023-04-09T10:19:03.135Z,101340.63
2023-04-09T10:21:39.520Z,101340.19
2023-04-09T10:24:09.525Z,101337.09
2023-04-09T10:26:42.368Z,101330.81
2023-04-09T10:29:13.792Z,101338.16
2023-04-09T10:31:52.246Z,101342.66
2023-04-09T10:34:21.613Z,101347.78
2023-04-09T10:36:55.309Z,101341.00
2023-04-09T10:39:27.503Z,101335.59
2023-04-09T10:41:55.764Z,101337.25
2023-04-09T10:44:24.208Z,101337.63
2023-04-09T10:46:54.687Z,101338.94
2023-04-09T10:49:24.358Z,101344.53
2023-04-09T10:51:53.390Z,101343.25
2023-04-09T10:54:45.396Z,101344.47
2023-04-09T10:57:14.998Z,101336.47
2023-04-09T10:59:44.913Z,101350.81
2023-04-09T11:02:44.512Z,101337.44
2023-04-09T11:05:20.284Z,101341.81
2023-04-09T11:07:56.660Z,101338.84
2023-04-09T11:10:25.427Z,101346.31
2023-04-09T11:12:53.692Z,101346.13
2023-04-09T11:15:22.048Z,101346.03
2023-04-09T11:17:51.403Z,101337.09
2023-04-09T11:20:21.940Z,101337.13
2023-04-09T11:22:51.980Z,101333.69
2023-04-09T11:25:23.618Z,101331.69
2023-04-09T11:27:52.528Z,101338.19
2023-04-09T11:30:20.653Z,101328.28
2023-04-09T11:32:49.018Z,101332.97
2023-04-09T11:35:18.215Z,101333.13
2023-04-09T11:37:46.924Z,101334.03
2023-04-09T11:40:18.628Z,101331.84
2023-04-09T11:42:46.957Z,101334.16
2023-04-09T11:45:16.799Z,101325.88
2023-04-09T11:47:45.637Z,101331.75
2023-04-09T11:50:14.565Z,101326.50
2023-04-09T11:52:42.274Z,101326.50
2023-04-09T11:55:11.115Z,101312.28
2023-04-09T11:57:43.840Z,101319.44
2023-04-09T12:00:14.095Z,101321.03
2023-04-09T12:02:46.290Z,101327.22
2023-04-09T12:05:23.529Z,101325.50
2023-04-09T12:07:56.360Z,101321.09
2023-04-09T12:10:28.296Z,101316.56
2023-04-09T12:12:56.186Z,101324.53
2023-04-09T12:15:27.599Z,101316.72
2023-04-09T12:17:56.793Z,101318.47
2023-04-09T12:20:29.349Z,101328.84
2023-04-09T12:22:56.882Z,101326.75
2023-04-09T12:25:24.614Z,101322.97
2023-04-09T12:27:52.081Z,101327.53
2023-04-09T12:30:19.477Z,101326.44
2023-04-09T12:32:46.951Z,101325.19
2023-04-09T12:35:16.016Z,101323.22
2023-04-09T12:37:44.075Z,101320.78
2023-04-09T12:40:13.700Z,101316.56
2023-04-09T12:42:41.605Z,101326.28
2023-04-09T12:45:11.162Z,101328.09
2023-04-09T12:47:39.570Z,101317.22
2023-04-09T12:50:09.028Z,101307.31
2023-04-09T12:52:37.848Z,101293.75
2023-04-09T12:55:06.679Z,101280.34
2023-04-09T12:57:34.512Z,101279.09
2023-04-09T13:00:01.957Z,101281.41
2023-04-09T13:02:30.084Z,101280.63
2023-04-09T13:04:57.696Z,101278.50
2023-04-09T13:07:26.047Z,101283.56
2023-04-09T13:09:54.711Z,101295.34
2023-04-09T13:12:22.305Z,101293.34
2023-04-09T13:14:50.435Z,101302.13
2023-04-09T13:17:26.607Z,101286.81
2023-04-09T13:19:54.057Z,101288.03
2023-04-09T13:22:21.456Z,101273.22
2023-04-09T13:24:48.855Z,101272.22
2023-04-09T13:27:18.082Z,101277.63
2023-04-09T13:29:45.564Z,101276.56
2023-04-09T13:32:13.203Z,101268.72
2023-04-09T13:34:40.808Z,101273.34
2023-04-09T13:37:08.162Z,101275.72
2023-04-09T13:39:35.576Z,101275.72
2023-04-09T13:42:12.745Z,101272.72
2023-04-09T13:44:45.272Z,101272.25
2023-04-09T13:47:13.026Z,101267.13
2023-04-09T13:49:41.172Z,101266.13
2023-04-09T13:52:08.550Z,101276.25
2023-04-09T13:54:36.099Z,101268.03
2023-04-09T13:57:03.842Z,101263.50
2023-04-09T13:59:31.359Z,101265.16
2023-04-09T14:02:00.348Z,101263.50
2023-04-09T14:04:27.964Z,101262.72
2023-04-09T14:06:55.386Z,101266.44
2023-04-09T14:09:22.771Z,101266.53
2023-04-09T14:11:50.855Z,101259.03
2023-04-09T14:14:19.771Z,101264.16
2023-04-09T14:16:48.260Z,101251.97
2023-04-09T14:19:16.977Z,101253.06
2023-04-09T14:21:44.950Z,101258.13
2023-04-09T14:24:12.461Z,101257.88
2023-04-09T14:26:40.045Z,101257.78
2023-04-09T14:29:07.471Z,101258.88
2023-04-09T14:31:34.895Z,101256.13
2023-04-09T14:34:02.345Z,101258.75
2023-04-09T14:36:31.584Z,101255.44
2023-04-09T14:38:59.001Z,101247.91
2023-04-09T14:41:26.830Z,101239.91
2023-04-09T14:43:54.177Z,101245.34
2023-04-09T14:46:22.108Z,101241.28
2023-04-09T14:48:49.670Z,101224.22
2023-04-09T14:51:17.317Z,101203.06
2023-04-09T14:53:46.329Z,101202.84
2023-04-09T14:56:13.774Z,101194.75
2023-04-09T14:58:41.133Z,101194.13
2023-04-09T15:01:08.955Z,101195.06
2023-04-09T15:03:36.677Z,101199.47
2023-04-09T15:06:04.557Z,101210.22
2023-04-09T15:08:31.927Z,101219.00
2023-04-09T15:11:00.675Z,101223.25
2023-04-09T15:13:28.031Z,101209.31
2023-04-09T15:15:55.489Z,101205.41
2023-04-09T15:18:22.939Z,101192.19
2023-04-09T15:20:51.114Z,101182.50
2023-04-09T15:23:18.507Z,101176.44
2023-04-09T15:25:45.928Z,101183.50
2023-04-09T15:28:14.788Z,101184.19
2023-04-09T15:30:42.174Z,101177.50
2023-04-09T15:33:12.546Z,101174.25
2023-04-09T15:35:40.008Z,101175.19
2023-04-09T15:38:07.369Z,101178.31
2023-04-09T15:40:34.740Z,101187.56
2023-04-09T15:43:02.102Z,101186.97
2023-04-09T15:45:31.121Z,101174.38
2023-04-09T15:47:58.594Z,101168.09
2023-04-09T15:50:26.144Z,101163.63
2023-04-09T15:52:54.903Z,101165.44
2023-04-09T15:55:22.908Z,101155.97
2023-04-09T15:57:50.275Z,101157.59
2023-04-09T16:00:17.666Z,101158.81
2023-04-09T16:02:46.378Z,101169.94
2023-04-09T16:05:13.753Z,101170.81
2023-04-09T16:07:41.488Z,101170.09
2023-04-09T16:10:09.875Z,101168.84
2023-04-09T16:12:37.265Z,101169.97
2023-04-09T16:15:05.016Z,101179.28
2023-04-09T16:17:34.498Z,101178.41
2023-04-09T16:20:09.937Z,101174.13
2023-04-09T16:22:37.313Z,101179.50
2023-04-09T16:25:04.954Z,101177.94
2023-04-09T16:27:32.398Z,101176.25
2023-04-09T16:30:00.240Z,101178.94
2023-04-09T16:32:27.617Z,101190.47
2023-04-09T16:34:56.015Z,101176.09
2023-04-09T16:37:24.735Z,101167.13
2023-04-09T16:42:19.343Z,101168.38
2023-04-09T16:44:46.799Z,101172.25
2023-04-09T16:47:14.175Z,101172.63
2023-04-09T16:49:41.538Z,101176.56
2023-04-09T16:52:08.976Z,101171.34
2023-04-09T16:54:37.709Z,101160.53
2023-04-09T16:57:05.153Z,101162.47
2023-04-09T16:59:32.546Z,101161.00
2023-04-09T17:01:59.972Z,101162.06
2023-04-09T17:04:28.161Z,101154.09
2023-04-09T17:06:55.624Z,101163.28
2023-04-09T17:09:22.996Z,101158.56
2023-04-09T17:11:52.864Z,101162.53
2023-04-09T17:14:20.413Z,101155.81
2023-04-09T17:16:48.360Z,101161.00
2023-04-09T17:19:15.769Z,101167.84
2023-04-09T17:21:43.144Z,101173.31
2023-04-09T17:24:10.735Z,101168.34
2023-04-09T17:26:38.100Z,101160.53
2023-04-09T17:29:07.447Z,101160.81
2023-04-09T17:31:34.823Z,101159.72
2023-04-09T17:34:02.207Z,101144.63
2023-04-09T17:36:31.528Z,101114.66
2023-04-09T17:38:58.906Z,101104.44
2023-04-09T17:41:27.625Z,101103.22
2023-04-09T17:43:55.334Z,101097.13
2023-04-09T17:46:24.462Z,101093.91
2023-04-09T17:48:52.809Z,101089.81
2023-04-09T17:51:20.645Z,101083.84
2023-04-09T17:53:48.222Z,101079.94
2023-04-09T17:56:17.523Z,101067.22
2023-04-09T17:58:45.089Z,101055.50
2023-04-09T18:01:13.419Z,101042.69
2023-04-09T18:03:43.049Z,101034.03
2023-04-09T18:06:10.826Z,101036.44
2023-04-09T18:08:38.320Z,101026.81
2023-04-09T18:11:12.879Z,101031.81
2023-04-09T18:13:40.851Z,101026.22
2023-04-09T18:16:09.923Z,101015.34
2023-04-09T18:18:37.331Z,101005.66
2023-04-09T18:21:06.986Z,100988.28
2023-04-09T18:23:34.425Z,100977.91
2023-04-09T18:26:01.842Z,100977.50
2023-04-09T18:28:29.246Z,100966.16
2023-04-09T18:30:57.603Z,100943.41
2023-04-09T18:33:25.582Z,100935.09
2023-04-09T18:35:53.003Z,100928.31
2023-04-09T18:38:21.762Z,100927.81
2023-04-09T18:40:49.171Z,100914.19
2023-04-09T18:43:16.535Z,100904.75
2023-04-09T18:45:43.970Z,100906.56
2023-04-09T18:48:11.379Z,100889.81
2023-04-09T18:50:38.804Z,100899.47
2023-04-09T18:53:06.909Z,100898.75
2023-04-09T18:55:37.554Z,100907.09
2023-04-09T18:58:08.359Z,100895.91
2023-04-09T19:00:35.833Z,100886.09
2023-04-09T19:03:04.569Z,100872.91
2023-04-09T19:05:32.576Z,100872.34
2023-04-09T19:08:01.220Z,100875.84
2023-04-09T19:10:29.193Z,100869.56
2023-04-09T19:12:58.114Z,100857.81
2023-04-09T19:15:28.263Z,100863.44
2023-04-09T19:17:58.847Z,100861.66
2023-04-09T19:20:26.362Z,100858.91
2023-04-09T19:22:54.426Z,100857.44
2023-04-09T19:25:22.646Z,100851.41
2023-04-09T19:27:50.244Z,100855.44
2023-04-09T19:30:20.334Z,100859.53
2023-04-09T19:32:47.752Z,100858.34
2023-04-09T19:35:15.403Z,100847.16
2023-04-09T19:37:42.796Z,100861.22
2023-04-09T19:40:11.129Z,100856.63
2023-04-09T19:42:38.648Z,100843.59
2023-04-09T19:45:07.024Z,100842.63
2023-04-09T19:47:36.403Z,100831.56
2023-04-09T19:50:03.948Z,100823.94
2023-04-09T19:52:31.691Z,100818.44
2023-04-09T19:54:59.113Z,100815.59
2023-04-09T19:57:27.037Z,100806.94
2023-04-09T19:59:55.044Z,100806.34
2023-04-09T20:02:23.762Z,100799.97
2023-04-09T20:04:54.310Z,100789.97
2023-04-09T20:07:21.746Z,100773.50
2023-04-09T20:09:51.895Z,100784.81
2023-04-09T20:12:21.569Z,100773.84
2023-04-09T20:14:49.352Z,100777.22
2023-04-09T20:17:19.693Z,100766.00
2023-04-09T20:19:47.046Z,100776.31
2023-04-09T20:22:16.105Z,100770.44
2023-04-09T20:24:43.722Z,100763.75
2023-04-09T20:27:11.233Z,100764.44
2023-04-09T20:29:39.591Z,100758.69
2023-04-09T20:32:07.326Z,100766.91
2023-04-09T20:34:36.726Z,100745.63
2023-04-09T20:37:05.490Z,100748.25
2023-04-09T20:39:34.198Z,100738.16
2023-04-09T20:42:01.623Z,100743.78
2023-04-09T20:44:29.853Z,100736.66
2023-04-09T20:46:57.228Z,100729.81
2023-04-09T20:49:24.589Z,100718.34
2023-04-09T20:51:51.995Z,100708.53
2023-04-09T20:54:23.163Z,100707.81
2023-04-09T20:56:52.168Z,100699.63
2023-04-09T20:59:19.931Z,100691.28
2023-04-09T21:01:47.445Z,100684.06
2023-04-09T21:04:18.340Z,100675.75
2023-04-09T21:06:45.867Z,100657.97
2023-04-09T21:09:13.246Z,100637.63
2023-04-09T21:11:40.621Z,100635.38
2023-04-09T21:14:10.980Z,100620.97
2023-04-09T21:16:38.437Z,100621.78
2023-04-09T21:19:07.685Z,100617.41
2023-04-09T21:21:35.288Z,100599.63
2023-04-09T21:24:02.760Z,100614.78
2023-04-09T21:26:45.002Z,100602.66
2023-04-09T21:29:18.492Z,100596.91
2023-04-09T21:31:45.860Z,100599.97
2023-04-09T21:34:13.512Z,100592.00
2023-04-09T21:36:41.244Z,100593.97
2023-04-09T21:39:08.679Z,100584.34
2023-04-09T21:41:36.509Z,100580.94
2023-04-09T21:44:08.732Z,100573.03
2023-04-09T21:46:40.870Z,100580.63
2023-04-09T21:49:08.473Z,100570.47
2023-04-09T21:51:36.396Z,100566.50
2023-04-09T21:54:05.162Z,100563.19
2023-04-09T21:56:33.506Z,100573.84
2023-04-09T21:59:01.560Z,100562.34
2023-04-09T22:01:31.720Z,100559.06
2023-04-09T22:04:01.496Z,100569.31
2023-04-09T22:06:29.594Z,100559.25
2023-04-09T22:08:58.218Z,100562.03
2023-04-09T22:11:28.280Z,100557.16
2023-04-09T22:13:58.920Z,100562.06
2023-04-09T22:16:28.445Z,100556.84
2023-04-09T22:18:56.189Z,100547.06
2023-04-09T22:21:26.365Z,100552.94
2023-04-09T22:23:53.751Z,100562.78
2023-04-09T22:26:22.484Z,100551.47
2023-04-09T22:28:50.142Z,100551.53
2023-04-09T22:31:17.643Z,100542.69
2023-04-09T22:33:45.042Z,100538.75
2023-04-09T22:36:12.603Z,100537.94
2023-04-09T22:38:42.552Z,100543.56
2023-04-09T22:41:09.943Z,100545.66
2023-04-09T22:43:37.570Z,100541.56
2023-04-09T22:46:05.298Z,100545.03
2023-04-09T22:48:35.913Z,100540.94
2023-04-09T22:51:08.823Z,100543.03
2023-04-09T22:53:36.206Z,100543.22
2023-04-09T22:56:05.235Z,100548.97
2023-04-09T22:58:32.606Z,100550.56
2023-04-09T23:01:00.258Z,100539.94
2023-04-09T23:03:27.893Z,100550.72
2023-04-09T23:05:56.907Z,100546.50
2023-04-09T23:08:24.262Z,100541.09
2023-04-09T23:10:51.664Z,100535.84
2023-04-09T23:13:20.386Z,100539.63
2023-04-09T23:15:47.808Z,100543.03
2023-04-09T23:18:15.300Z,100543.88
2023-04-09T23:20:42.724Z,100549.13
2023-04-09T23:23:10.118Z,100550.72
2023-04-09T23:25:38.533Z,100559.09
2023-04-09T23:28:05.930Z,100561.22
2023-04-09T23:30:34.611Z,100560.75
2023-04-09T23:33:02.137Z,100554.69
2023-04-09T23:35:29.661Z,100569.59
2023-04-09T23:37:58.389Z,100563.56
2023-04-09T23:40:25.817Z,100567.66
2023-04-09T23:42:53.254Z,100572.41
2023-04-09T23:45:23.520Z,100576.66
2023-04-09T23:47:52.772Z,100564.00
2023-04-09T23:50:20.443Z,100566.78
2023-04-09T23:52:49.734Z,100576.97
2023-04-09T23:55:17.428Z,100574.50
2023-04-09T23:57:44.879Z,100571.34
